Hauptseite
METAR-TAF:

METAR-TAF

Flughäfen :

Locarno, Schweiz

Flugplatz Locarno

Breite: 46-09-55N, Länge: 8-52-40E, Höhe: 198 m

Beobachtung

Neuester Wetterbericht von vor 21 Minuten, um 09:50 UTC
Wind 6 kt aus West/Südwest
Temperatur 19°C
Luftfeuchtigkeit 52%
Luftdruck 1029 hPa
Sichtweite 10 km oder mehr
keine Wolken unter 1500 m und keine Kumulonimbus oder Gewitterwolken

METAR: LSZL 190950Z 25006KT CAVOK 19/09 Q1029 RMK BLU

Zeit: 12:11 (10:11 UTC)

Prognose

Neuester Wetterbericht von vor 4 Stunden und 46 Minuten, um 05:25 UTC
Gültige Prognose vom 19 um 06 UTC bis 19 um 15 UTC
Wind 3 kt aus unterschiedlichen Richtungen
Sichtweite 10 km oder mehr
keine Wolken unter 1500 m und keine Kumulonimbus oder Gewitterwolken
Zeitweise
vom 19 um 12 UTC bis 19 um 15 UTC
Sichtweite 10 km oder mehr
Leicht bewölkt in der Höhe von 6000 ft

TAF: LSZL 190525Z 1906/1915 VRB03KT CAVOK TEMPO 1912/1915 9999 FEW060

Wetterbeobachtungen und Prognosen von mehr als 4000 Flughäfen (METAR und TAF Bericht).

Die verfügbaren Stationen werden durch gelbe und rote Markierungen auf der Karte dargestellt.

Führen Sie die Maus auf sie, um den Namen der Station zu sehen.

Darauf klicken, um die Beobachtung von Wetterbeobachtungen und Prognosen zu sehen.

Um die Karte zu ändern : klicken Sie auf den grünen Tasten mit einem schwarzen Kreuz Zum Vergrößern, auf den grünen Button mit einem Gedankenstrich zu verkleinern, oder auf die grünen Pfeile für benachbarte Karten.


METAR-TAF: